createdAt,value
2023-01-22T02:11:42.265Z,25.80
2023-01-22T02:14:18.174Z,29.60
2023-01-22T02:16:45.933Z,30.10
2023-01-22T02:19:13.876Z,29.20
2023-01-22T02:21:42.885Z,29.20
2023-01-22T02:24:15.208Z,28.80
2023-01-22T02:26:44.688Z,28.60
2023-01-22T02:29:15.642Z,27.20
2023-01-22T02:31:46.822Z,27.80
2023-01-22T02:34:24.322Z,28.50
2023-01-22T02:36:52.731Z,30.10
2023-01-22T02:39:31.984Z,31.70
2023-01-22T02:42:07.394Z,29.70
2023-01-22T02:44:35.651Z,27.90
2023-01-22T02:47:03.632Z,29.60
2023-01-22T02:49:31.358Z,28.90
2023-01-22T02:51:58.773Z,30.30
2023-01-22T02:54:26.898Z,30.80
2023-01-22T02:56:55.751Z,30.90
2023-01-22T02:59:26.413Z,29.10
2023-01-22T03:01:56.957Z,27.50
2023-01-22T03:04:24.529Z,26.10
2023-01-22T03:06:51.856Z,28.40
2023-01-22T03:09:19.212Z,26.30
2023-01-22T03:11:47.437Z,26.20
2023-01-22T03:14:43.226Z,25.00
2023-01-22T03:17:29.828Z,25.60
2023-01-22T03:20:18.429Z,28.70
2023-01-22T03:22:47.734Z,27.30
2023-01-22T03:25:15.517Z,23.70
2023-01-22T03:28:03.962Z,23.70
2023-01-22T03:30:35.370Z,22.70
2023-01-22T03:33:02.983Z,23.20
2023-01-22T03:35:30.857Z,22.80
2023-01-22T03:38:13.521Z,22.60
2023-01-22T03:40:41.030Z,20.30
2023-01-22T03:43:09.226Z,21.00
2023-01-22T03:45:38.622Z,20.30
2023-01-22T03:48:06.404Z,20.20
2023-01-22T03:50:37.680Z,20.20
2023-01-22T03:53:06.737Z,20.50
2023-01-22T03:55:34.468Z,19.50
2023-01-22T03:58:03.272Z,19.80
2023-01-22T04:00:30.889Z,19.70
2023-01-22T04:03:00.402Z,19.80
2023-01-22T04:05:29.298Z,19.60
2023-01-22T04:07:57.239Z,21.00
2023-01-22T04:10:29.369Z,19.30
2023-01-22T04:12:57.071Z,21.00
2023-01-22T04:15:24.540Z,19.90
2023-01-22T04:17:53.876Z,22.60
2023-01-22T04:20:36.085Z,20.40
2023-01-22T04:23:21.118Z,21.00
2023-01-22T04:25:49.566Z,21.80
2023-01-22T04:28:17.898Z,19.80
2023-01-22T04:30:51.169Z,18.80
2023-01-22T04:33:41.253Z,19.90
2023-01-22T04:36:13.157Z,19.30
2023-01-22T04:38:40.661Z,18.50
2023-01-22T04:41:09.187Z,18.50
2023-01-22T04:43:37.347Z,17.80
2023-01-22T04:46:04.978Z,18.20
2023-01-22T04:48:34.418Z,17.90
2023-01-22T04:51:02.364Z,18.50
2023-01-22T04:53:31.833Z,18.30
2023-01-22T04:55:59.312Z,16.30
2023-01-22T04:58:27.852Z,16.60
2023-01-22T05:00:57.036Z,17.30
2023-01-22T05:03:24.601Z,17.70
2023-01-22T05:05:54.638Z,18.80
2023-01-22T05:08:22.835Z,17.50
2023-01-22T05:10:51.401Z,16.80
2023-01-22T05:13:27.841Z,17.30
2023-01-22T05:15:55.867Z,18.30
2023-01-22T05:18:26.042Z,17.30
2023-01-22T05:20:54.224Z,16.70
2023-01-22T05:23:24.356Z,17.30
2023-01-22T05:25:51.753Z,18.80
2023-01-22T05:28:26.661Z,20.00
2023-01-22T05:31:08.237Z,17.80
2023-01-22T05:33:48.097Z,17.00
2023-01-22T05:36:16.754Z,19.40
2023-01-22T05:38:46.427Z,20.40
2023-01-22T05:41:14.658Z,19.60
2023-01-22T05:43:43.320Z,19.70
2023-01-22T05:46:16.242Z,17.30
2023-01-22T05:48:52.692Z,17.70
2023-01-22T05:51:32.524Z,17.50
2023-01-22T05:54:00.316Z,16.60
2023-01-22T05:56:31.441Z,17.30
2023-01-22T05:59:01.641Z,16.60
2023-01-22T06:01:30.082Z,18.10
2023-01-22T06:03:59.114Z,17.30
2023-01-22T06:06:29.247Z,16.70
2023-01-22T06:08:58.072Z,16.60
2023-01-22T06:11:27.212Z,16.70
2023-01-22T06:13:54.590Z,17.20
2023-01-22T06:16:23.933Z,17.50
2023-01-22T06:18:57.952Z,18.60
2023-01-22T06:21:27.420Z,18.70
2023-01-22T06:23:55.067Z,18.40
2023-01-22T06:26:23.385Z,18.30
2023-01-22T06:28:51.318Z,18.00
2023-01-22T06:31:18.789Z,18.00
2023-01-22T06:33:46.580Z,18.40
2023-01-22T06:36:15.009Z,16.40
2023-01-22T06:38:42.695Z,19.60
2023-01-22T06:41:14.187Z,23.10
2023-01-22T06:43:44.721Z,21.10
2023-01-22T06:46:12.710Z,18.10
2023-01-22T06:49:02.347Z,17.90
2023-01-22T06:51:30.251Z,18.40
2023-01-22T06:53:59.088Z,18.80
2023-01-22T06:56:27.909Z,19.30
2023-01-22T06:58:56.921Z,19.50
2023-01-22T07:01:25.746Z,18.50
2023-01-22T07:03:53.532Z,19.80
2023-01-22T07:06:21.407Z,18.80
2023-01-22T07:08:50.583Z,19.10
2023-01-22T07:11:17.971Z,18.30
2023-01-22T07:13:45.389Z,19.30
2023-01-22T07:16:13.645Z,19.00
2023-01-22T07:18:42.541Z,19.20
2023-01-22T07:21:10.549Z,18.50
2023-01-22T07:23:37.988Z,19.50
2023-01-22T07:26:05.495Z,20.90
2023-01-22T07:28:33.148Z,18.50
2023-01-22T07:31:03.099Z,19.00
2023-01-22T07:33:30.959Z,20.20
2023-01-22T07:35:58.628Z,21.20
2023-01-22T10:09:41.168Z,27.50
2023-01-22T10:12:13.800Z,47.40
2023-01-22T10:14:42.274Z,48.70
2023-01-22T10:17:17.528Z,32.90
2023-01-22T10:19:47.087Z,22.70
2023-01-22T10:22:22.895Z,27.50
2023-01-22T10:24:51.047Z,29.00
2023-01-22T10:27:43.061Z,20.00
2023-01-22T10:30:17.801Z,15.70
2023-01-22T10:32:46.333Z,14.70
2023-01-22T10:35:17.663Z,14.50
2023-01-22T10:37:47.297Z,14.50
2023-01-22T10:40:43.901Z,13.20
2023-01-22T10:43:13.748Z,12.40
2023-01-22T10:45:59.987Z,11.60
2023-01-22T10:48:27.765Z,14.70
2023-01-22T10:51:16.315Z,12.90
2023-01-22T10:53:52.953Z,13.30
2023-01-22T10:56:38.348Z,13.40
2023-01-22T10:59:26.034Z,11.90
2023-01-22T11:02:12.033Z,13.70
2023-01-22T11:04:39.577Z,12.10
2023-01-22T11:07:34.371Z,11.40
2023-01-22T11:10:24.442Z,11.90
2023-01-22T11:13:10.975Z,11.60
2023-01-22T11:15:58.457Z,12.70
2023-01-22T11:18:59.438Z,10.80
2023-01-22T11:21:35.600Z,10.20
2023-01-22T11:24:32.124Z,9.80
2023-01-22T11:27:04.448Z,10.90
2023-01-22T11:29:50.041Z,10.90
2023-01-22T11:32:34.607Z,9.60
2023-01-22T11:35:28.836Z,11.20
2023-01-22T11:38:18.107Z,10.20
2023-01-22T11:41:08.522Z,10.70
2023-01-22T11:44:10.243Z,10.90
2023-01-22T11:46:53.441Z,11.40
2023-01-22T11:49:23.954Z,12.50
2023-01-22T11:52:01.761Z,12.70
2023-01-22T11:54:36.164Z,11.10
2023-01-22T11:57:16.650Z,9.90
2023-01-22T12:00:10.921Z,10.60
2023-01-22T12:03:12.564Z,9.70
2023-01-22T12:05:46.596Z,9.50
2023-01-22T12:08:52.192Z,9.60
2023-01-22T12:11:57.673Z,9.30
2023-01-22T12:14:32.175Z,10.30
2023-01-22T12:17:12.033Z,8.90
2023-01-22T12:20:08.862Z,10.80
2023-01-22T12:22:44.500Z,12.10
2023-01-22T12:25:33.707Z,10.20
2023-01-22T12:28:35.354Z,10.60
2023-01-22T12:31:17.449Z,10.30
2023-01-22T12:33:46.442Z,10.90
2023-01-22T12:36:16.952Z,11.80
2023-01-22T12:39:09.299Z,13.10
2023-01-22T12:41:49.173Z,11.20
2023-01-22T12:44:22.420Z,11.70
2023-01-22T12:47:08.792Z,11.40
2023-01-22T12:49:49.108Z,11.70
2023-01-22T12:52:48.015Z,7.90
2023-01-22T12:55:24.000Z,10.10
2023-01-22T12:57:51.559Z,11.50
2023-01-22T13:00:32.276Z,10.50
2023-01-22T13:03:00.157Z,9.90
2023-01-22T13:05:30.706Z,10.70
2023-01-22T13:08:03.700Z,10.40
2023-01-22T13:10:33.581Z,9.50
2023-01-22T13:13:13.724Z,9.00
2023-01-22T13:15:41.347Z,8.30
2023-01-22T13:18:24.402Z,9.40
2023-01-22T13:21:08.496Z,10.80
2023-01-22T13:23:46.685Z,11.80
2023-01-22T13:26:20.391Z,10.90
2023-01-22T13:29:03.755Z,9.40
2023-01-22T13:31:31.540Z,9.40
2023-01-22T13:34:01.169Z,9.90
2023-01-22T13:36:29.470Z,10.00
2023-01-22T13:38:58.831Z,9.00
2023-01-22T13:41:37.113Z,9.10
2023-01-22T13:44:05.521Z,10.20
2023-01-22T13:46:36.732Z,10.10
2023-01-22T13:49:11.712Z,9.80
2023-01-22T13:51:39.551Z,12.90
2023-01-22T13:54:07.626Z,12.40
2023-01-22T13:56:35.535Z,14.30
2023-01-22T13:59:28.081Z,13.40
2023-01-22T14:01:55.856Z,13.50
2023-01-22T14:04:37.649Z,14.40
2023-01-22T14:07:05.845Z,13.40
2023-01-22T14:09:38.227Z,13.60
2023-01-22T14:12:15.487Z,15.00
2023-01-22T14:14:43.931Z,15.60
2023-01-22T14:17:34.439Z,16.90
2023-01-22T14:20:02.629Z,15.30
2023-01-22T14:22:30.209Z,14.40
2023-01-22T14:24:58.081Z,14.40
2023-01-22T14:27:39.075Z,13.60
2023-01-22T14:30:07.981Z,13.10
2023-01-22T14:32:35.780Z,15.60
2023-01-22T14:35:03.497Z,15.60
2023-01-22T14:37:31.054Z,17.30
2023-01-22T14:39:58.702Z,18.90
2023-01-22T14:42:28.545Z,16.70
2023-01-22T14:44:56.235Z,15.20
2023-01-22T14:47:23.978Z,17.00
2023-01-22T14:49:51.711Z,14.90
2023-01-22T14:52:19.478Z,15.00
2023-01-22T14:54:47.198Z,17.70
2023-01-22T14:57:14.958Z,15.00
2023-01-22T14:59:42.857Z,15.90
2023-01-22T15:02:11.281Z,15.00
2023-01-22T15:04:42.886Z,15.90
2023-01-22T15:07:10.761Z,14.90
2023-01-22T15:09:38.989Z,16.20
2023-01-22T15:12:07.259Z,14.10
2023-01-22T15:14:35.085Z,14.00
2023-01-22T15:17:02.791Z,13.90
2023-01-22T15:19:38.947Z,13.70
2023-01-22T15:22:08.967Z,13.30
2023-01-22T15:24:36.759Z,15.80
2023-01-22T15:27:04.458Z,17.10
2023-01-22T15:29:32.329Z,17.90
2023-01-22T15:32:00.163Z,19.00
2023-01-22T15:34:27.959Z,15.40
2023-01-22T15:36:55.674Z,15.20
2023-01-22T15:39:23.400Z,14.00
2023-01-22T15:41:51.154Z,15.60
2023-01-22T15:44:18.919Z,14.90
2023-01-22T15:46:46.853Z,14.00
2023-01-22T15:49:14.629Z,14.60
2023-01-22T15:51:42.620Z,15.40
2023-01-22T15:54:14.680Z,16.10
2023-01-22T15:56:42.598Z,18.60
2023-01-22T15:59:11.205Z,16.20
2023-01-22T16:01:39.264Z,16.30
2023-01-22T16:04:07.169Z,16.80
2023-01-22T16:06:35.154Z,13.40
2023-01-22T16:09:03.940Z,13.50
2023-01-22T16:11:33.359Z,14.50
2023-01-22T16:14:01.290Z,15.30
2023-01-22T16:16:33.601Z,15.40
2023-01-22T16:19:01.960Z,15.20
2023-01-22T16:21:29.917Z,17.00
2023-01-22T16:24:00.834Z,15.20
2023-01-22T16:29:01.627Z,15.20
2023-01-22T16:31:31.322Z,15.70
2023-01-22T16:34:08.022Z,15.00
2023-01-22T16:36:35.799Z,13.90
2023-01-22T16:39:03.454Z,14.70
2023-01-22T16:41:33.121Z,11.80
2023-01-22T16:44:09.447Z,13.70
2023-01-22T16:46:41.945Z,16.00
2023-01-22T16:49:18.141Z,15.80
2023-01-22T16:51:48.306Z,16.30
2023-01-22T19:54:48.832Z,14.50
2023-01-22T19:57:16.745Z,15.40
2023-01-22T19:59:44.762Z,14.90
2023-01-22T20:02:15.602Z,13.70
2023-01-22T20:07:10.868Z,16.70
2023-01-22T20:09:38.666Z,16.00
2023-01-22T20:12:06.632Z,16.10
2023-01-22T20:14:35.652Z,15.90
2023-01-22T20:17:03.545Z,18.90
2023-01-22T20:19:31.468Z,17.50
2023-01-22T20:21:59.924Z,17.70
2023-01-22T20:24:28.694Z,16.70
2023-01-22T20:26:57.431Z,15.50
2023-01-22T20:29:25.824Z,15.60
2023-01-22T20:31:53.858Z,14.80
2023-01-22T20:34:21.734Z,15.10
2023-01-22T20:36:49.315Z,16.20
2023-01-22T20:39:17.079Z,15.10
2023-01-22T20:41:46.027Z,16.40
2023-01-22T20:44:14.227Z,12.80
2023-01-22T20:46:44.928Z,14.10
2023-01-22T20:49:12.859Z,16.10
2023-01-22T20:51:40.814Z,17.50
2023-01-22T20:54:08.763Z,15.80
2023-01-22T20:56:36.646Z,16.40
2023-01-22T20:59:06.484Z,16.90
2023-01-22T21:01:34.365Z,16.40
2023-01-22T21:04:02.744Z,16.10
2023-01-22T21:06:32.565Z,15.50
2023-01-22T21:09:01.624Z,15.10
2023-01-22T21:11:31.199Z,21.50
2023-01-22T21:13:59.399Z,19.40
2023-01-22T21:16:32.033Z,16.40
2023-01-22T21:19:07.864Z,16.00
2023-01-22T21:21:36.134Z,15.90
2023-01-22T21:24:04.006Z,14.50
2023-01-22T21:26:32.639Z,14.20
2023-01-22T21:29:02.999Z,14.20
2023-01-22T21:31:31.071Z,12.60
2023-01-22T21:34:03.085Z,12.50
2023-01-22T21:36:41.708Z,12.80
2023-01-22T21:39:14.198Z,12.10
2023-01-22T21:41:43.482Z,11.80
2023-01-22T21:44:31.022Z,11.40
2023-01-22T21:46:58.730Z,12.40
2023-01-22T21:49:26.301Z,12.80
2023-01-22T21:51:57.013Z,12.50
2023-01-22T21:54:34.665Z,13.00
2023-01-22T21:57:02.350Z,14.70
2023-01-22T21:59:29.973Z,12.40
2023-01-22T22:01:57.574Z,11.90
2023-01-22T22:04:26.600Z,13.10
2023-01-22T22:06:54.413Z,13.00
2023-01-22T22:09:24.673Z,14.00
2023-01-22T22:11:55.122Z,13.40
2023-01-22T22:14:22.922Z,13.50
2023-01-22T22:16:50.913Z,13.00
2023-01-22T22:19:18.901Z,12.60
2023-01-22T22:21:46.927Z,13.00
2023-01-22T22:24:14.523Z,11.70
2023-01-22T22:26:42.160Z,12.40
2023-01-22T22:29:10.182Z,12.20
2023-01-22T22:31:38.102Z,13.00
2023-01-22T22:34:05.850Z,12.90
2023-01-22T22:36:33.579Z,13.30
2023-01-22T22:39:01.587Z,13.90
2023-01-22T22:41:30.828Z,15.60
2023-01-22T22:43:58.467Z,13.00
2023-01-22T22:46:34.125Z,13.00
2023-01-22T22:49:01.891Z,14.50
2023-01-22T22:51:34.560Z,11.60
2023-01-22T22:54:08.348Z,11.30
2023-01-22T22:56:36.059Z,11.70
2023-01-22T22:59:04.473Z,11.30
2023-01-22T23:01:33.569Z,13.00
2023-01-22T23:04:01.721Z,11.60
2023-01-22T23:06:31.502Z,13.20
2023-01-22T23:09:12.789Z,12.20
2023-01-22T23:11:40.785Z,12.90
2023-01-22T23:14:08.601Z,14.20
2023-01-22T23:16:38.008Z,14.40
2023-01-22T23:19:16.623Z,13.70
2023-01-22T23:21:44.431Z,14.90
2023-01-22T23:24:13.192Z,13.10
2023-01-22T23:26:41.639Z,12.00
2023-01-22T23:29:10.452Z,12.00
2023-01-22T23:31:41.357Z,13.50
2023-01-22T23:36:39.940Z,12.40
2023-01-22T23:39:07.460Z,12.70
2023-01-22T23:41:35.025Z,12.80
2023-01-22T23:44:02.683Z,11.70
2023-01-22T23:46:31.328Z,11.30
2023-01-22T23:48:59.467Z,10.90
2023-01-22T23:51:27.274Z,10.20
2023-01-22T23:53:54.904Z,10.30
2023-01-22T23:56:24.529Z,9.20
